Time;durP1;ratioP1;P1;durP2;ratioP2;P2;SDS_P1;SDS_P2;PMS_P1;PMS_P2;Temp;Humidity;BMP_temperature;BMP_pressure;BME280_temperature;BME280_humidity;BME280_pressure;Samples;Min_cycle;Max_cycle;Signal;HPM_P1;HPM_P2
2022/04/03 00:01:56;;;;;;;5.17;2.95;;;;;;;3.99;65.20;98879.73;1707309;82;21054;-53
2022/04/03 00:04:24;;;;;;;5.53;3.02;;;;;;;3.99;64.83;98881.03;1725423;82;21067;-54
2022/04/03 00:06:52;;;;;;;5.87;3.17;;;;;;;3.90;64.72;98882.09;1685974;83;21053;-53
2022/04/03 00:09:20;;;;;;;6.95;3.25;;;;;;;3.81;65.02;98881.48;1699082;82;21571;-53
2022/04/03 00:11:48;;;;;;;6.83;3.35;;;;;;;3.76;65.19;98894.02;1711426;83;21071;-54
2022/04/03 00:14:18;;;;;;;6.35;3.00;;;;;;;3.69;65.29;98891.52;1720123;81;21092;-53
2022/04/03 00:16:44;;;;;;;6.28;2.72;;;;;;;3.70;65.18;98891.41;1698185;83;21498;-53
2022/04/03 00:19:11;;;;;;;7.20;3.37;;;;;;;3.80;65.17;98895.45;1697137;83;21193;-53
2022/04/03 00:21:39;;;;;;;5.40;3.05;;;;;;;3.89;65.14;98893.92;1697295;83;21172;-53
2022/04/03 00:24:07;;;;;;;5.72;3.00;;;;;;;3.98;64.98;98893.20;1694259;81;21279;-53
2022/04/03 00:26:34;;;;;;;6.37;3.27;;;;;;;3.97;64.50;98894.16;1694108;83;21682;-53
2022/04/03 00:29:01;;;;;;;7.62;3.62;;;;;;;3.98;64.41;98888.00;1706323;82;21106;-53
2022/04/03 00:31:28;;;;;;;7.20;3.87;;;;;;;3.98;64.53;98884.58;1719375;81;21030;-52
2022/04/03 00:33:55;;;;;;;7.12;3.37;;;;;;;4.00;64.54;98883.98;1730486;81;22099;-53
2022/04/03 00:36:22;;;;;;;5.50;2.95;;;;;;;4.00;64.63;98890.03;1738651;80;21097;-54
2022/04/03 00:38:49;;;;;;;6.45;3.02;;;;;;;3.95;64.74;98890.86;1729234;81;21058;-53
2022/04/03 00:41:18;;;;;;;6.15;3.00;;;;;;;3.91;65.05;98894.63;1709440;82;21237;-53
2022/04/03 00:43:44;;;;;;;8.43;3.45;;;;;;;3.88;65.15;98890.50;1703303;83;21817;-53
2022/04/03 00:46:12;;;;;;;7.12;3.30;;;;;;;3.85;65.45;98893.78;1706393;81;21238;-53
2022/04/03 00:48:40;;;;;;;6.25;3.20;;;;;;;3.92;65.44;98894.98;1693429;82;21009;-53
2022/04/03 00:51:08;;;;;;;5.62;3.15;;;;;;;4.00;65.38;98892.64;1693029;82;21115;-53
2022/04/03 00:53:36;;;;;;;5.00;2.40;;;;;;;4.05;65.17;98889.20;1721100;81;22346;-53
2022/04/03 00:56:05;;;;;;;5.50;2.87;;;;;;;3.99;65.11;98889.66;1716671;83;21111;-53
2022/04/03 00:58:33;;;;;;;5.00;2.47;;;;;;;3.89;65.19;98886.93;1718382;81;21250;-53
2022/04/03 01:00:59;;;;;;;6.28;2.80;;;;;;;3.86;65.33;98894.15;1728721;81;20942;-53
2022/04/03 01:03:28;;;;;;;5.75;2.67;;;;;;;3.82;65.27;98896.16;1717601;82;21093;-53
2022/04/03 01:05:56;;;;;;;5.62;2.77;;;;;;;3.79;65.40;98895.56;1714342;82;21098;-53
2022/04/03 01:08:25;;;;;;;5.45;3.05;;;;;;;3.78;65.34;98901.70;1690915;82;21063;-53
2022/04/03 01:10:52;;;;;;;5.60;3.00;;;;;;;3.71;65.46;98893.05;1696372;82;21171;-53
2022/04/03 01:13:18;;;;;;;5.65;2.98;;;;;;;3.68;65.31;98897.20;1699604;82;21380;-53
2022/04/03 01:15:59;;;;;;;4.85;2.85;;;;;;;3.59;65.36;98893.16;1706143;82;21121;-53
2022/04/03 01:18:25;;;;;;;5.47;3.25;;;;;;;3.58;65.45;98908.40;1711491;82;21643;-52
2022/04/03 01:20:52;;;;;;;6.45;3.37;;;;;;;3.58;65.25;98896.24;1709875;82;21069;-52
2022/04/03 01:23:21;;;;;;;5.87;3.08;;;;;;;3.59;65.43;98900.48;1707990;82;21082;-52
2022/04/03 01:25:48;;;;;;;5.35;2.90;;;;;;;3.59;65.41;98900.97;1698888;82;21072;-52
2022/04/03 01:28:14;;;;;;;6.67;3.60;;;;;;;3.54;65.34;98902.60;1703521;82;21134;-52
2022/04/03 01:30:41;;;;;;;6.30;3.62;;;;;;;3.50;65.36;98904.61;1712795;82;21069;-52
2022/04/03 01:33:08;;;;;;;5.78;2.72;;;;;;;3.50;65.55;98911.11;1702917;82;21539;-52
2022/04/03 01:35:34;;;;;;;6.40;3.22;;;;;;;3.51;65.63;98910.17;1709809;82;21173;-52
2022/04/03 01:38:01;;;;;;;6.67;3.25;;;;;;;3.49;65.54;98912.04;1708960;82;21094;-53
2022/04/03 01:40:29;;;;;;;5.95;3.15;;;;;;;3.45;65.73;98915.82;1704986;82;21114;-53
2022/04/03 01:42:55;;;;;;;5.92;3.45;;;;;;;3.53;65.70;98919.14;1705835;82;21177;-52
2022/04/03 01:45:22;;;;;;;5.42;2.85;;;;;;;3.62;65.49;98924.16;1708705;82;21109;-53
2022/04/03 01:47:49;;;;;;;7.35;3.62;;;;;;;3.67;65.41;98918.95;1712340;82;21235;-52
2022/04/03 01:50:15;;;;;;;6.50;3.35;;;;;;;3.74;65.43;98916.72;1700584;82;21160;-53
2022/04/03 01:52:42;;;;;;;6.17;3.58;;;;;;;3.82;65.30;98923.48;1706330;82;21390;-52
2022/04/03 01:55:09;;;;;;;6.45;3.55;;;;;;;3.79;65.11;98917.68;1706914;82;21083;-52
2022/04/03 01:57:37;;;;;;;5.97;3.52;;;;;;;3.77;65.25;98921.70;1704846;82;21118;-53
2022/04/03 02:00:06;;;;;;;5.87;3.50;;;;;;;3.78;64.97;98929.02;1715300;82;21542;-52
2022/04/03 02:02:33;;;;;;;6.60;3.87;;;;;;;3.77;64.74;98929.50;1711624;82;21555;-53
2022/04/03 02:05:00;;;;;;;6.95;4.37;;;;;;;3.72;64.62;98930.32;1727289;81;21110;-52
2022/04/03 02:07:29;;;;;;;7.15;3.50;;;;;;;3.64;64.82;98928.28;1730989;81;21054;-52
2022/04/03 02:09:55;;;;;;;6.28;3.02;;;;;;;3.58;64.78;98934.41;1713145;81;21141;-52
2022/04/03 02:12:22;;;;;;;5.87;2.75;;;;;;;3.45;64.95;98939.23;1729886;81;21160;-52
2022/04/03 02:14:50;;;;;;;6.72;3.25;;;;;;;3.35;65.10;98937.77;1731694;81;21101;-53
2022/04/03 02:17:16;;;;;;;6.47;3.40;;;;;;;3.34;65.27;98934.80;1742815;81;21082;-53
2022/04/03 02:19:43;;;;;;;6.72;3.42;;;;;;;3.40;65.22;98928.34;1730330;81;21598;-53
2022/04/03 02:22:11;;;;;;;7.03;3.15;;;;;;;3.50;65.36;98926.71;1712280;82;21521;-52
2022/04/03 02:24:38;;;;;;;5.92;3.20;;;;;;;3.58;65.03;98926.16;1703909;83;21061;-52
2022/04/03 02:27:05;;;;;;;6.92;3.62;;;;;;;3.64;64.31;98919.66;1717740;83;21532;-52
2022/04/03 02:29:31;;;;;;;6.80;3.45;;;;;;;3.68;63.77;98917.17;1713511;83;21050;-53
2022/04/03 02:31:59;;;;;;;7.62;4.20;;;;;;;3.69;63.80;98909.73;1701227;82;21570;-53
2022/04/03 02:34:26;;;;;;;6.92;3.60;;;;;;;3.63;63.24;98912.78;1697133;83;21067;-52
2022/04/03 02:36:54;;;;;;;5.97;3.47;;;;;;;3.55;63.36;98919.88;1699284;82;21165;-53
2022/04/03 02:39:20;;;;;;;8.13;3.62;;;;;;;3.48;63.54;98936.86;1706558;82;21553;-52
2022/04/03 02:41:47;;;;;;;6.47;3.90;;;;;;;3.46;63.52;98927.89;1706085;82;21090;-52
2022/04/03 02:44:15;;;;;;;7.95;4.10;;;;;;;3.49;63.61;98928.94;1705029;82;21544;-53
2022/04/03 02:46:41;;;;;;;7.15;3.45;;;;;;;3.49;63.65;98932.02;1712624;81;21112;-52
2022/04/03 02:49:08;;;;;;;7.08;3.90;;;;;;;3.45;63.80;98936.63;1702258;82;21111;-53
2022/04/03 02:51:37;;;;;;;6.42;3.80;;;;;;;3.45;64.06;98934.03;1706077;81;21064;-53
2022/04/03 02:54:04;;;;;;;7.67;3.77;;;;;;;3.47;63.92;98933.91;1707037;82;21062;-52
2022/04/03 02:56:31;;;;;;;7.70;3.50;;;;;;;3.44;63.93;98944.06;1695148;82;21061;-52
2022/04/03 02:58:59;;;;;;;7.67;3.95;;;;;;;3.39;64.07;98944.87;1708735;82;21559;-53
2022/04/03 03:01:25;;;;;;;6.35;3.55;;;;;;;3.38;64.12;98942.37;1711786;82;21219;-53
2022/04/03 03:03:54;;;;;;;6.72;3.40;;;;;;;3.44;64.03;98943.23;1702625;82;21160;-53
2022/04/03 03:06:20;;;;;;;8.20;4.60;;;;;;;3.48;63.97;98933.80;1701537;82;21071;-53
2022/04/03 03:08:48;;;;;;;7.20;4.22;;;;;;;3.49;63.97;98945.03;1707257;82;21133;-52
2022/04/03 03:11:16;;;;;;;6.70;3.90;;;;;;;3.49;64.02;98932.84;1704835;82;21083;-52
2022/04/03 03:13:42;;;;;;;7.47;3.67;;;;;;;3.52;63.71;98931.80;1703632;82;21165;-53
2022/04/03 03:16:09;;;;;;;7.83;3.98;;;;;;;3.51;63.74;98938.78;1703322;82;21795;-52
2022/04/03 03:18:38;;;;;;;7.47;4.17;;;;;;;3.49;63.82;98939.83;1710964;82;21011;-52
2022/04/03 03:21:06;;;;;;;5.95;3.77;;;;;;;3.43;63.96;98949.37;1702612;82;21054;-53
2022/04/03 03:23:34;;;;;;;6.90;3.60;;;;;;;3.37;64.17;98948.06;1709893;82;21647;-53
2022/04/03 03:26:00;;;;;;;7.35;4.40;;;;;;;3.38;64.17;98954.08;1706979;82;21276;-53
2022/04/03 03:28:27;;;;;;;6.65;3.62;;;;;;;3.35;64.12;98956.45;1706149;82;21090;-52
2022/04/03 03:30:54;;;;;;;6.53;3.42;;;;;;;3.37;64.14;98964.95;1710939;81;21520;-53
2022/04/03 03:33:21;;;;;;;7.12;3.45;;;;;;;3.46;64.03;98963.45;1699359;82;21090;-52
2022/04/03 03:35:47;;;;;;;6.65;4.12;;;;;;;3.54;64.00;98967.14;1707968;82;21677;-53
2022/04/03 03:38:14;;;;;;;6.80;3.55;;;;;;;3.61;63.82;98970.60;1702794;82;21173;-52
2022/04/03 03:40:41;;;;;;;7.67;3.80;;;;;;;3.64;63.66;98974.28;1709085;82;21061;-53
2022/04/03 03:43:09;;;;;;;17.52;9.65;;;;;;;3.60;63.53;98968.48;1699947;83;21018;-53
2022/04/03 03:45:36;;;;;;;17.07;10.53;;;;;;;3.60;63.57;98967.63;1704075;82;21490;-52
2022/04/03 03:48:04;;;;;;;14.95;7.83;;;;;;;3.57;63.58;98969.19;1707834;82;21114;-52
2022/04/03 03:50:32;;;;;;;8.68;5.00;;;;;;;3.50;63.63;98970.92;1710767;82;22020;-53
2022/04/03 03:52:59;;;;;;;12.47;8.55;;;;;;;3.47;63.68;98975.52;1694342;82;21141;-52
2022/04/03 03:55:27;;;;;;;12.15;7.22;;;;;;;3.43;63.84;98972.77;1705283;82;21094;-53
2022/04/03 03:57:54;;;;;;;8.13;4.95;;;;;;;3.40;63.95;98979.04;1703296;82;21653;-53
2022/04/03 04:02:58;;;;;;;6.97;3.62;;;;;;;3.42;64.13;98966.75;1797863;78;22632;-54
2022/04/03 04:05:25;;;;;;;7.45;4.05;;;;;;;3.47;63.71;98975.05;1759025;80;21050;-53
2022/04/03 04:07:52;;;;;;;7.37;3.87;;;;;;;3.54;63.50;98990.55;1766555;80;21233;-53
2022/04/03 04:10:19;;;;;;;6.33;4.40;;;;;;;3.52;63.55;98991.62;1777559;78;21011;-53
2022/04/03 04:12:47;;;;;;;6.87;4.15;;;;;;;3.50;63.73;98987.83;1775173;80;21050;-53
2022/04/03 04:15:15;;;;;;;8.35;4.70;;;;;;;3.54;63.81;98984.53;1783917;80;21002;-54
2022/04/03 04:17:47;;;;;;;8.23;4.65;;;;;;;3.57;63.58;98996.49;1780833;80;20992;-54
2022/04/03 04:20:17;;;;;;;7.95;5.05;;;;;;;3.55;63.67;99000.50;1778638;80;21103;-54
2022/04/03 04:22:46;;;;;;;8.03;4.60;;;;;;;3.50;63.72;99006.52;1763668;80;20985;-54
2022/04/03 04:25:18;;;;;;;8.35;4.95;;;;;;;3.45;63.91;99003.42;1769683;80;21057;-53
2022/04/03 04:27:44;;;;;;;9.53;5.28;;;;;;;3.40;64.03;99003.75;1783996;80;21003;-53
2022/04/03 04:30:11;;;;;;;8.73;5.53;;;;;;;3.40;64.09;99008.13;1781592;80;21077;-53
2022/04/03 04:32:40;;;;;;;8.88;4.25;;;;;;;3.39;64.16;99010.36;1784131;80;21071;-53
2022/04/03 04:35:08;;;;;;;8.60;4.60;;;;;;;3.43;64.26;99012.63;1758605;80;21583;-53
2022/04/03 04:37:35;;;;;;;10.15;7.05;;;;;;;3.54;64.21;99012.66;1768669;80;21582;-52
2022/04/03 04:40:03;;;;;;;8.03;4.65;;;;;;;3.67;64.09;99010.48;1779194;80;21089;-53
2022/04/03 04:42:30;;;;;;;8.13;5.65;;;;;;;3.70;63.85;99012.38;1770523;78;22374;-52
2022/04/03 04:44:57;;;;;;;9.28;5.97;;;;;;;3.69;63.90;99009.89;1778311;80;21146;-53
2022/04/03 04:47:25;;;;;;;7.42;5.10;;;;;;;3.69;64.13;99010.70;1710183;81;21007;-52
2022/04/03 04:49:52;;;;;;;9.10;5.25;;;;;;;3.71;64.33;99010.13;1706534;81;21115;-52
2022/04/03 04:52:19;;;;;;;9.00;4.50;;;;;;;3.72;64.40;99010.48;1725691;82;21077;-52
2022/04/03 04:54:46;;;;;;;9.50;5.20;;;;;;;3.71;64.57;99015.80;1729533;82;21116;-52
2022/04/03 04:57:12;;;;;;;8.15;4.67;;;;;;;3.68;64.78;99019.92;1734516;82;21278;-52
2022/04/03 04:59:39;;;;;;;7.35;4.55;;;;;;;3.62;65.02;99022.52;1725152;82;21516;-53
2022/04/03 05:02:06;;;;;;;8.73;4.55;;;;;;;3.58;65.34;99026.30;1717129;82;21121;-53
2022/04/03 05:04:33;;;;;;;7.17;4.50;;;;;;;3.54;65.49;99022.23;1697629;82;21544;-52
2022/04/03 05:07:00;;;;;;;7.78;4.22;;;;;;;3.54;65.49;99024.84;1688405;83;21078;-53
2022/04/03 05:09:26;;;;;;;6.87;4.08;;;;;;;3.60;65.62;99023.11;1691530;82;21855;-53
2022/04/03 05:11:53;;;;;;;7.22;3.98;;;;;;;3.66;65.75;99015.31;1705806;82;21058;-52
2022/04/03 05:14:20;;;;;;;7.20;4.12;;;;;;;3.67;65.77;99010.00;1714777;82;20970;-53
2022/04/03 05:16:46;;;;;;;8.30;4.40;;;;;;;3.69;65.85;99012.49;1699238;84;21057;-52
2022/04/03 05:19:15;;;;;;;8.68;4.58;;;;;;;3.67;65.84;99005.28;1708438;82;20971;-53
2022/04/03 05:21:43;;;;;;;7.47;4.70;;;;;;;3.71;65.99;99011.91;1693521;83;22284;-52
2022/04/03 05:24:12;;;;;;;7.58;4.72;;;;;;;3.72;65.84;99001.86;1697823;83;21051;-53
2022/04/03 05:26:39;;;;;;;8.63;5.85;;;;;;;3.71;65.68;98993.69;1698461;83;21113;-53
2022/04/03 05:29:07;;;;;;;9.30;5.80;;;;;;;3.62;65.93;98991.30;1703320;82;21040;-53
2022/04/03 05:31:34;;;;;;;9.65;5.75;;;;;;;3.62;66.18;98996.98;1689356;83;21081;-53
2022/04/03 05:34:00;;;;;;;9.25;5.70;;;;;;;3.68;66.15;98996.52;1683869;82;21167;-53
2022/04/03 05:36:28;;;;;;;9.25;5.80;;;;;;;3.81;65.99;98993.84;1696554;84;21109;-53
2022/04/03 05:38:54;;;;;;;9.80;5.40;;;;;;;3.89;65.88;98991.02;1701481;82;21128;-53
2022/04/03 05:41:21;;;;;;;10.28;7.00;;;;;;;3.90;65.87;99001.80;1676510;83;21083;-53
2022/04/03 05:43:48;;;;;;;8.70;5.22;;;;;;;3.87;65.72;98995.52;1738097;81;21049;-53
2022/04/03 05:46:15;;;;;;;8.88;5.10;;;;;;;3.80;65.84;98995.63;1743990;80;21159;-53
2022/04/03 05:48:41;;;;;;;8.83;5.35;;;;;;;3.74;66.04;98999.97;1738450;82;21106;-53
2022/04/03 05:51:08;;;;;;;7.87;4.87;;;;;;;3.67;66.27;99005.28;1726833;81;21015;-53
2022/04/03 05:53:35;;;;;;;9.43;4.78;;;;;;;3.64;66.58;99001.11;1734407;80;21595;-53
2022/04/03 05:56:02;;;;;;;7.10;4.17;;;;;;;3.61;66.86;99001.34;1729859;80;21046;-53
2022/04/03 05:58:29;;;;;;;7.03;4.33;;;;;;;3.61;67.02;98999.22;1726999;82;21153;-53
2022/04/03 06:00:56;;;;;;;7.72;4.78;;;;;;;3.70;67.00;99000.67;1732148;80;20988;-53
2022/04/03 06:03:23;;;;;;;8.05;4.70;;;;;;;3.81;66.77;98993.36;1744444;81;21035;-53
2022/04/03 06:05:51;;;;;;;8.55;4.80;;;;;;;3.93;66.42;98998.12;1748924;81;21015;-53
2022/04/03 06:08:18;;;;;;;8.48;4.95;;;;;;;4.02;66.49;98995.33;1751507;81;21588;-52
2022/04/03 06:10:45;;;;;;;7.15;4.35;;;;;;;4.07;66.29;98993.21;1760272;80;21119;-52
2022/04/03 06:13:13;;;;;;;10.05;5.17;;;;;;;4.08;66.25;99000.91;1746921;81;21074;-52
2022/04/03 06:15:43;;;;;;;8.03;4.60;;;;;;;4.01;66.30;98995.78;1753812;80;21046;-52
2022/04/03 06:18:12;;;;;;;6.92;4.87;;;;;;;4.05;66.33;99000.28;1742088;81;21328;-52
2022/04/03 06:20:39;;;;;;;8.18;4.20;;;;;;;4.11;66.26;98989.90;1754536;80;21550;-52
2022/04/03 06:23:13;;;;;;;7.62;4.90;;;;;;;4.18;66.37;98993.20;1665892;84;21630;-52
2022/04/03 06:25:42;;;;;;;7.97;4.78;;;;;;;4.25;66.54;98991.81;1686754;83;21828;-52
2022/04/03 06:28:10;;;;;;;9.23;4.97;;;;;;;4.31;66.20;98985.78;1687766;85;21136;-52
2022/04/03 06:30:37;;;;;;;7.75;4.60;;;;;;;4.32;65.64;98988.72;1763005;81;21391;-51
2022/04/03 06:33:04;;;;;;;8.50;5.33;;;;;;;4.33;65.88;98994.30;1747198;81;21047;-54
2022/04/03 06:35:31;;;;;;;8.30;5.08;;;;;;;4.31;66.03;98997.02;1743492;81;22034;-53
2022/04/03 06:37:58;;;;;;;8.28;4.90;;;;;;;4.28;66.04;98995.95;1753761;81;21094;-53
2022/04/03 06:40:25;;;;;;;8.40;5.37;;;;;;;4.24;65.88;99006.25;1752305;81;21097;-53
2022/04/03 06:42:52;;;;;;;11.08;5.05;;;;;;;4.20;66.12;99003.50;1760602;81;21549;-53
2022/04/03 06:45:19;;;;;;;7.37;4.30;;;;;;;4.25;65.99;99010.05;1762999;81;22253;-53
2022/04/03 06:47:46;;;;;;;6.80;4.20;;;;;;;4.39;65.91;99008.98;1763670;80;21237;-53
2022/04/03 06:50:15;;;;;;;7.45;4.75;;;;;;;4.50;65.29;99008.16;1760113;80;21028;-53
2022/04/03 06:52:41;;;;;;;8.95;4.22;;;;;;;4.52;65.11;99009.34;1758418;81;21051;-53
2022/04/03 06:55:09;;;;;;;8.95;4.65;;;;;;;4.58;64.47;99016.20;1747500;81;21041;-53
2022/04/03 06:57:36;;;;;;;7.87;4.50;;;;;;;4.55;63.11;99013.83;1748513;81;21650;-53
2022/04/03 07:00:06;;;;;;;7.45;4.47;;;;;;;4.55;63.19;99018.22;1745738;81;21149;-53
2022/04/03 07:02:34;;;;;;;6.47;3.85;;;;;;;4.50;63.77;99016.45;1747128;81;21055;-53
2022/04/03 07:05:02;;;;;;;7.15;3.83;;;;;;;4.42;64.19;99020.48;1748258;81;21059;-53
2022/04/03 07:07:29;;;;;;;8.03;4.65;;;;;;;4.43;64.50;99019.52;1746833;81;21074;-54
2022/04/03 07:09:56;;;;;;;6.42;4.25;;;;;;;4.47;64.89;99016.20;1733472;81;21079;-53
2022/04/03 07:12:24;;;;;;;7.20;4.05;;;;;;;4.45;64.64;99008.98;1751432;81;22101;-53
2022/04/03 07:14:51;;;;;;;8.35;4.50;;;;;;;4.38;64.64;99014.31;1748504;79;21012;-53
2022/04/03 07:17:20;;;;;;;9.70;4.45;;;;;;;4.30;65.42;99023.17;1758191;80;21079;-53
2022/04/03 07:19:47;;;;;;;8.78;4.00;;;;;;;4.19;65.71;99024.00;1754866;81;21019;-53
2022/04/03 07:22:14;;;;;;;7.70;4.17;;;;;;;4.13;65.96;99025.75;1758567;81;21098;-54
2022/04/03 07:24:40;;;;;;;7.83;4.53;;;;;;;4.16;66.36;99031.55;1747873;81;21146;-53
2022/04/03 07:27:08;;;;;;;7.37;5.00;;;;;;;4.19;66.83;99031.33;1731881;81;21046;-53
2022/04/03 07:29:35;;;;;;;10.45;4.25;;;;;;;4.24;67.20;99029.20;1740318;79;20993;-54
2022/04/03 07:32:05;;;;;;;7.80;4.58;;;;;;;4.27;67.22;99027.67;1754996;81;21082;-54
2022/04/03 07:34:32;;;;;;;6.17;3.45;;;;;;;4.33;67.05;99031.58;1736459;81;21096;-54
2022/04/03 07:37:00;;;;;;;6.03;3.62;;;;;;;4.40;66.64;99041.06;1741566;81;21016;-54
2022/04/03 07:39:27;;;;;;;7.47;3.70;;;;;;;4.45;66.35;99046.30;1745402;81;21116;-55
2022/04/03 07:41:54;;;;;;;8.15;4.62;;;;;;;4.52;66.29;99041.42;1734147;81;21039;-54
2022/04/03 07:44:21;;;;;;;8.15;4.25;;;;;;;4.60;66.28;99044.27;1752512;81;21106;-54
2022/04/03 07:46:48;;;;;;;7.10;4.47;;;;;;;4.61;65.08;99042.03;1750933;81;21062;-53
2022/04/03 07:49:14;;;;;;;9.50;5.65;;;;;;;4.61;65.26;99046.42;1742294;79;21440;-53
2022/04/03 07:51:41;;;;;;;8.15;4.72;;;;;;;4.61;65.20;99051.15;1742114;81;21065;-53
2022/04/03 07:54:08;;;;;;;9.00;4.40;;;;;;;4.62;65.04;99045.00;1743680;79;21094;-53
2022/04/03 07:56:35;;;;;;;8.05;4.87;;;;;;;4.72;65.29;99052.92;1750627;81;21074;-53
2022/04/03 07:59:05;;;;;;;10.48;4.95;;;;;;;4.79;65.86;99048.91;1742647;79;21130;-54
2022/04/03 08:01:30;;;;;;;8.20;4.80;;;;;;;4.83;65.16;99058.63;1744482;81;21160;-53
2022/04/03 08:03:59;;;;;;;10.28;5.62;;;;;;;4.78;65.33;99058.16;1758851;80;21086;-52
2022/04/03 08:06:26;;;;;;;8.60;5.08;;;;;;;4.62;64.99;99058.03;1762425;80;21062;-52
2022/04/03 08:08:52;;;;;;;7.78;4.37;;;;;;;4.41;65.17;99060.96;1753895;80;21047;-52
2022/04/03 08:11:19;;;;;;;7.55;4.08;;;;;;;4.31;65.93;99066.51;1752834;80;21183;-52
2022/04/03 08:13:47;;;;;;;7.12;3.77;;;;;;;4.22;66.23;99064.09;1692122;82;21112;-52
2022/04/03 08:16:15;;;;;;;6.75;3.50;;;;;;;4.16;66.52;99064.58;1747939;80;21056;-52
2022/04/03 08:18:44;;;;;;;8.75;4.28;;;;;;;4.16;66.83;99067.18;1747282;80;21022;-52
2022/04/03 08:21:12;;;;;;;6.80;3.45;;;;;;;4.15;67.01;99072.02;1754627;80;21088;-53
2022/04/03 08:23:40;;;;;;;7.08;3.17;;;;;;;4.19;66.60;99070.86;1758777;80;21348;-53
2022/04/03 08:26:09;;;;;;;7.10;3.65;;;;;;;4.29;66.80;99066.62;1751952;80;21505;-52
2022/04/03 08:28:36;;;;;;;6.22;3.27;;;;;;;4.32;65.45;99057.28;1743782;80;21062;-52
2022/04/03 08:31:03;;;;;;;6.80;3.58;;;;;;;4.35;65.38;99065.32;1763857;80;21035;-52
2022/04/03 08:33:29;;;;;;;6.75;3.10;;;;;;;4.38;65.34;99065.09;1746322;80;21052;-52
2022/04/03 08:35:57;;;;;;;5.45;2.95;;;;;;;4.46;65.75;99066.66;1745433;80;21043;-52
2022/04/03 08:38:24;;;;;;;5.20;2.40;;;;;;;4.54;65.56;99063.00;1746329;80;21289;-52
2022/04/03 08:40:51;;;;;;;8.35;2.75;;;;;;;4.61;65.27;99060.75;1744226;80;21087;-52
2022/04/03 08:43:17;;;;;;;5.35;2.67;;;;;;;4.76;65.52;99063.96;1744691;80;21044;-52
2022/04/03 08:45:44;;;;;;;5.83;2.80;;;;;;;4.83;65.13;99063.35;1753582;80;21071;-54
2022/04/03 08:48:10;;;;;;;5.08;2.67;;;;;;;4.90;64.58;99065.02;1755682;80;21011;-53
2022/04/03 08:50:39;;;;;;;5.67;2.85;;;;;;;4.92;64.57;99067.50;1756852;80;21099;-52
2022/04/03 08:53:08;;;;;;;3.95;1.55;;;;;;;4.95;64.52;99064.66;1753023;80;21117;-52
2022/04/03 08:55:37;;;;;;;4.15;1.10;;;;;;;4.90;64.26;99066.31;1698774;84;21056;-52
2022/04/03 08:58:04;;;;;;;3.05;1.12;;;;;;;4.77;63.43;99069.51;1750678;80;21047;-52
2022/04/03 09:00:36;;;;;;;4.58;1.70;;;;;;;4.61;63.21;99066.78;1759310;80;21039;-52
2022/04/03 09:03:00;;;;;;;3.98;1.37;;;;;;;4.54;63.72;99063.00;1764362;80;21809;-53
2022/04/03 09:05:39;;;;;;;4.20;2.00;;;;;;;4.51;63.25;99069.73;1756345;80;21012;-52
2022/04/03 09:08:07;;;;;;;5.28;2.90;;;;;;;4.43;63.43;99061.67;1745420;80;21090;-53
2022/04/03 09:10:34;;;;;;;6.28;2.87;;;;;;;4.41;63.61;99068.78;1764866;80;21052;-53
2022/04/03 09:13:02;;;;;;;6.53;3.35;;;;;;;4.39;64.35;99072.80;1769092;80;21515;-53
2022/04/03 09:15:31;;;;;;;5.33;2.33;;;;;;;4.40;64.91;99075.73;1769466;80;21055;-53
2022/04/03 09:18:00;;;;;;;4.33;2.27;;;;;;;4.44;64.70;99077.18;1764478;80;21022;-53
2022/04/03 09:20:36;;;;;;;;;;;;;;;4.53;64.93;99077.44;1775986;80;21040;-52
2022/04/03 09:23:08;;;;;;;3.60;1.45;;;;;;;4.59;63.96;99081.70;1768856;80;20494;-53
2022/04/03 09:25:41;;;;;;;5.55;2.55;;;;;;;4.53;63.72;99080.86;1755417;80;21607;-52
2022/04/03 09:28:13;;;;;;;4.25;1.67;;;;;;;4.47;63.93;99082.62;1758124;80;21152;-52
2022/04/03 09:30:43;;;;;;;4.12;1.70;;;;;;;4.44;64.54;99083.70;1762347;79;21086;-53
2022/04/03 09:33:12;;;;;;;3.65;1.40;;;;;;;4.45;63.63;99085.37;1748869;80;21508;-53
2022/04/03 09:36:02;;;;;;;3.42;1.50;;;;;;;4.48;63.41;99082.98;1764877;80;21051;-53
2022/04/03 09:38:30;;;;;;;5.00;1.80;;;;;;;4.48;62.05;99080.86;1748208;80;21082;-53
2022/04/03 09:40:59;;;;;;;4.30;1.32;;;;;;;4.49;62.80;99087.71;1702372;83;21264;-53
2022/04/03 09:43:35;;;;;;;3.58;1.30;;;;;;;4.46;61.62;99081.80;1757959;80;21067;-54
2022/04/03 09:46:04;;;;;;;2.62;1.12;;;;;;;4.39;61.15;99079.79;1722220;82;21095;-52
2022/04/03 09:48:41;;;;;;;5.10;1.87;;;;;;;4.27;61.30;99085.45;1746834;80;21041;-52
2022/04/03 09:51:19;;;;;;;3.27;1.40;;;;;;;4.17;62.17;99087.05;1752676;80;21067;-53
2022/04/03 09:53:53;;;;;;;5.33;1.45;;;;;;;4.08;62.93;99087.27;1748122;80;21229;-53
2022/04/03 09:56:37;;;;;;;3.10;1.20;;;;;;;3.96;62.99;99092.08;1757778;80;21461;-52
2022/04/03 09:59:08;;;;;;;3.60;1.25;;;;;;;3.87;61.93;99084.48;1747623;80;21114;-53
2022/04/03 10:01:41;;;;;;;3.42;1.27;;;;;;;3.87;62.13;99093.59;1745870;80;21074;-52
2022/04/03 10:04:17;;;;;;;3.05;1.17;;;;;;;3.81;61.25;99092.72;1747577;80;21965;-52
2022/04/03 10:06:43;;;;;;;3.02;1.10;;;;;;;3.76;61.05;99087.84;1761967;80;21047;-54
2022/04/03 10:09:15;;;;;;;3.20;1.17;;;;;;;3.70;61.34;99087.01;1759610;80;20958;-54
2022/04/03 10:11:46;;;;;;;8.73;1.30;;;;;;;3.68;61.48;99099.27;1761235;80;20988;-52
2022/04/03 10:14:11;;;;;;;4.78;1.55;;;;;;;3.67;61.23;99100.23;1700098;82;21773;-52
2022/04/03 10:16:40;;;;;;;4.72;1.55;;;;;;;3.74;61.42;99101.92;1751153;80;21066;-52
2022/04/03 10:19:07;;;;;;;4.80;1.62;;;;;;;3.79;60.88;99103.72;1749587;80;21162;-53
2022/04/03 10:21:43;;;;;;;3.75;1.62;;;;;;;3.82;61.25;99104.32;1754139;80;21016;-52
2022/04/03 10:24:25;;;;;;;5.15;2.00;;;;;;;3.86;61.87;99101.84;1761041;79;21057;-52
2022/04/03 10:27:01;;;;;;;3.65;1.57;;;;;;;3.91;61.70;99102.81;1751059;80;21580;-59
2022/04/03 10:29:34;;;;;;;3.35;1.40;;;;;;;3.94;61.37;99110.41;1766139;80;21122;-54
2022/04/03 10:32:05;;;;;;;4.65;1.98;;;;;;;3.94;61.48;99109.58;1759497;80;22024;-54
2022/04/03 10:34:47;;;;;;;4.60;1.95;;;;;;;4.01;61.25;99114.69;1751662;80;21050;-54
2022/04/03 10:37:36;;;;;;;4.33;1.90;;;;;;;4.05;61.96;99112.21;1756633;80;21543;-54
2022/04/03 10:40:18;;;;;;;4.50;1.85;;;;;;;4.11;61.73;99109.17;1762424;80;21008;-53
2022/04/03 10:42:56;;;;;;;4.47;1.52;;;;;;;4.10;59.76;99107.50;1763059;80;21125;-53
2022/04/03 10:45:39;;;;;;;3.20;1.20;;;;;;;4.10;60.14;99112.70;1754782;80;21283;-52
2022/04/03 10:48:26;;;;;;;4.30;1.77;;;;;;;4.08;60.38;99122.41;1755781;80;21023;-53
2022/04/03 10:51:07;;;;;;;4.50;1.77;;;;;;;4.04;60.67;99114.47;1765376;80;21060;-53
2022/04/03 10:53:42;;;;;;;4.12;1.90;;;;;;;4.06;61.02;99120.39;1762571;80;21082;-53
2022/04/03 10:56:22;;;;;;;3.43;1.53;;;;;;;4.16;60.68;99119.25;1754692;80;21008;-53
2022/04/03 10:58:51;;;;;;;4.42;1.55;;;;;;;4.22;60.64;99122.23;1762732;80;21167;-53
2022/04/03 11:01:29;;;;;;;3.95;1.20;;;;;;;4.24;61.04;99120.34;1763376;80;21086;-53
2022/04/03 11:04:13;;;;;;;4.12;1.80;;;;;;;4.28;60.74;99123.54;1748825;80;21059;-51
2022/04/03 11:06:41;;;;;;;3.87;1.32;;;;;;;4.30;60.72;99126.86;1692086;84;21112;-52
2022/04/03 11:09:15;;;;;;;4.95;1.47;;;;;;;4.30;60.86;99125.55;1717772;82;21146;-52
2022/04/03 11:11:50;;;;;;;3.05;1.12;;;;;;;4.31;61.09;99127.70;1713846;82;21024;-53
2022/04/03 11:14:56;;;;;;;2.77;1.07;;;;;;;4.37;60.66;99135.90;1717030;82;21153;-51
2022/04/03 11:17:48;;;;;;;3.65;1.27;;;;;;;4.47;59.65;99139.92;1720133;81;21110;-53
2022/04/03 11:20:39;;;;;;;3.45;1.20;;;;;;;4.38;57.40;99134.94;1721890;80;21091;-53
2022/04/03 11:23:14;;;;;;;3.00;1.12;;;;;;;4.28;58.00;99132.66;1733482;81;21091;-52
2022/04/03 11:25:41;;;;;;;4.50;1.67;;;;;;;4.20;58.40;99136.30;1726063;82;21075;-52
2022/04/03 11:28:08;;;;;;;4.55;1.17;;;;;;;4.19;59.22;99139.37;1726919;81;21008;-52
2022/04/03 11:30:37;;;;;;;3.72;1.30;;;;;;;4.27;59.52;99138.34;1735725;82;21091;-52
2022/04/03 11:33:04;;;;;;;3.95;1.65;;;;;;;4.36;59.65;99138.61;1733680;82;22239;-52
2022/04/03 11:35:35;;;;;;;5.37;1.92;;;;;;;4.46;60.25;99139.59;1729540;81;21008;-52
2022/04/03 11:38:05;;;;;;;4.30;1.60;;;;;;;4.62;59.62;99144.02;1738303;82;22025;-52
2022/04/03 11:40:34;;;;;;;4.15;1.65;;;;;;;4.82;59.24;99132.53;1717994;82;20941;-53
2022/04/03 11:43:16;;;;;;;3.98;1.60;;;;;;;4.91;57.78;99136.20;1721821;81;21323;-53
2022/04/03 11:45:56;;;;;;;4.28;1.72;;;;;;;4.93;57.37;99146.07;1739349;82;22183;-52
2022/04/03 11:48:26;;;;;;;4.42;1.70;;;;;;;4.93;57.62;99141.67;1734977;81;21528;-52
2022/04/03 11:51:09;;;;;;;4.05;1.67;;;;;;;4.92;57.96;99140.00;1717507;82;21974;-52
2022/04/03 11:53:36;;;;;;;3.27;1.55;;;;;;;4.90;57.67;99143.20;1724278;82;21547;-52